sensor_id;sensor_type;location;lat;lon;timestamp;temperature;humidity
67364;HTU21D;54250;45.572;38.086;2023-04-01T00:00:49;0.02;83.32
67364;HTU21D;54250;45.572;38.086;2023-04-01T00:03:15;0.01;83.31
67364;HTU21D;54250;45.572;38.086;2023-04-01T00:05:41;-0.02;83.13
67364;HTU21D;54250;45.572;38.086;2023-04-01T00:08:07;-0.06;83.05
67364;HTU21D;54250;45.572;38.086;2023-04-01T00:10:33;-0.08;82.85
67364;HTU21D;54250;45.572;38.086;2023-04-01T00:13:00;-0.08;82.84
67364;HTU21D;54250;45.572;38.086;2023-04-01T00:15:26;-0.09;83.08
67364;HTU21D;54250;45.572;38.086;2023-04-01T00:17:52;-0.10;83.11
67364;HTU21D;54250;45.572;38.086;2023-04-01T00:20:18;-0.11;83.12
67364;HTU21D;54250;45.572;38.086;2023-04-01T00:22:44;-0.13;83.88
67364;HTU21D;54250;45.572;38.086;2023-04-01T00:25:10;-0.11;84.23
67364;HTU21D;54250;45.572;38.086;2023-04-01T00:27:37;-0.11;84.15
67364;HTU21D;54250;45.572;38.086;2023-04-01T00:30:03;-0.19;83.78
67364;HTU21D;54250;45.572;38.086;2023-04-01T00:32:29;-0.27;84.40
67364;HTU21D;54250;45.572;38.086;2023-04-01T00:34:56;-0.27;84.31
67364;HTU21D;54250;45.572;38.086;2023-04-01T00:37:26;-0.26;84.61
67364;HTU21D;54250;45.572;38.086;2023-04-01T00:39:52;-0.28;84.43
67364;HTU21D;54250;45.572;38.086;2023-04-01T00:42:18;-0.26;84.52
67364;HTU21D;54250;45.572;38.086;2023-04-01T00:44:49;-0.21;84.25
67364;HTU21D;54250;45.572;38.086;2023-04-01T00:47:16;-0.22;84.39
67364;HTU21D;54250;45.572;38.086;2023-04-01T00:49:44;-0.21;84.33
67364;HTU21D;54250;45.572;38.086;2023-04-01T00:52:14;-0.22;84.26
67364;HTU21D;54250;45.572;38.086;2023-04-01T00:54:44;-0.27;84.32
67364;HTU21D;54250;45.572;38.086;2023-04-01T00:57:21;-0.25;84.77
67364;HTU21D;54250;45.572;38.086;2023-04-01T00:59:51;-0.25;84.32
67364;HTU21D;54250;45.572;38.086;2023-04-01T01:02:19;-0.30;84.38
67364;HTU21D;54250;45.572;38.086;2023-04-01T01:04:45;-0.32;84.59
67364;HTU21D;54250;45.572;38.086;2023-04-01T01:10:33;-0.28;84.52
67364;HTU21D;54250;45.572;38.086;2023-04-01T01:13:41;-0.37;84.82
67364;HTU21D;54250;45.572;38.086;2023-04-01T01:16:17;-0.36;85.06
67364;HTU21D;54250;45.572;38.086;2023-04-01T01:24:13;-0.30;85.57
67364;HTU21D;54250;45.572;38.086;2023-04-01T01:37:46;-0.50;85.69
67364;HTU21D;54250;45.572;38.086;2023-04-01T01:40:14;-0.51;85.85
67364;HTU21D;54250;45.572;38.086;2023-04-01T01:42:46;-0.55;85.71
67364;HTU21D;54250;45.572;38.086;2023-04-01T01:45:14;-0.57;85.68
67364;HTU21D;54250;45.572;38.086;2023-04-01T01:47:45;-0.61;85.71
67364;HTU21D;54250;45.572;38.086;2023-04-01T01:50:13;-0.61;85.69
67364;HTU21D;54250;45.572;38.086;2023-04-01T01:52:39;-0.60;85.53
67364;HTU21D;54250;45.572;38.086;2023-04-01T01:55:25;-0.61;85.58
67364;HTU21D;54250;45.572;38.086;2023-04-01T01:57:52;-0.59;85.63
67364;HTU21D;54250;45.572;38.086;2023-04-01T02:00:19;-0.65;85.81
67364;HTU21D;54250;45.572;38.086;2023-04-01T02:02:48;-0.65;85.51
67364;HTU21D;54250;45.572;38.086;2023-04-01T02:05:21;-0.65;85.87
67364;HTU21D;54250;45.572;38.086;2023-04-01T02:07:52;-0.65;85.73
67364;HTU21D;54250;45.572;38.086;2023-04-01T02:10:22;-0.66;85.68
67364;HTU21D;54250;45.572;38.086;2023-04-01T02:12:51;-0.67;85.65
67364;HTU21D;54250;45.572;38.086;2023-04-01T02:15:18;-0.73;85.76
67364;HTU21D;54250;45.572;38.086;2023-04-01T02:17:47;-0.75;85.67
67364;HTU21D;54250;45.572;38.086;2023-04-01T02:20:20;-0.74;85.96
67364;HTU21D;54250;45.572;38.086;2023-04-01T02:22:53;-0.69;85.64
67364;HTU21D;54250;45.572;38.086;2023-04-01T02:25:23;-0.69;85.73
67364;HTU21D;54250;45.572;38.086;2023-04-01T02:27:51;-0.70;85.49
67364;HTU21D;54250;45.572;38.086;2023-04-01T02:30:19;-0.72;85.52
67364;HTU21D;54250;45.572;38.086;2023-04-01T02:32:46;-0.72;85.97
67364;HTU21D;54250;45.572;38.086;2023-04-01T02:35:15;-0.70;85.92
67364;HTU21D;54250;45.572;38.086;2023-04-01T02:37:42;-0.70;85.82
67364;HTU21D;54250;45.572;38.086;2023-04-01T02:40:12;-0.69;86.12
67364;HTU21D;54250;45.572;38.086;2023-04-01T02:42:38;-0.70;86.47
67364;HTU21D;54250;45.572;38.086;2023-04-01T02:45:05;-0.65;86.84
67364;HTU21D;54250;45.572;38.086;2023-04-01T02:47:31;-0.64;87.03
67364;HTU21D;54250;45.572;38.086;2023-04-01T02:49:57;-0.62;87.04
67364;HTU21D;54250;45.572;38.086;2023-04-01T02:52:25;-0.60;87.20
67364;HTU21D;54250;45.572;38.086;2023-04-01T02:54:52;-0.60;87.62
67364;HTU21D;54250;45.572;38.086;2023-04-01T02:57:18;-0.59;87.70
67364;HTU21D;54250;45.572;38.086;2023-04-01T02:59:44;-0.59;87.89
67364;HTU21D;54250;45.572;38.086;2023-04-01T03:02:10;-0.57;87.58
67364;HTU21D;54250;45.572;38.086;2023-04-01T03:04:36;-0.61;87.49
67364;HTU21D;54250;45.572;38.086;2023-04-01T03:07:03;-0.60;87.73
67364;HTU21D;54250;45.572;38.086;2023-04-01T03:09:30;-0.56;87.66
67364;HTU21D;54250;45.572;38.086;2023-04-01T03:11:56;-0.53;88.02
67364;HTU21D;54250;45.572;38.086;2023-04-01T03:14:22;-0.52;87.86
67364;HTU21D;54250;45.572;38.086;2023-04-01T03:16:48;-0.47;87.93
67364;HTU21D;54250;45.572;38.086;2023-04-01T03:19:15;-0.47;87.99
67364;HTU21D;54250;45.572;38.086;2023-04-01T03:21:41;-0.47;87.93
67364;HTU21D;54250;45.572;38.086;2023-04-01T03:24:07;-0.46;87.86
67364;HTU21D;54250;45.572;38.086;2023-04-01T03:26:33;-0.44;87.79
67364;HTU21D;54250;45.572;38.086;2023-04-01T03:29:00;-0.42;87.51
67364;HTU21D;54250;45.572;38.086;2023-04-01T03:31:26;-0.39;87.48
67364;HTU21D;54250;45.572;38.086;2023-04-01T03:33:55;-0.35;87.27
67364;HTU21D;54250;45.572;38.086;2023-04-01T03:36:22;-0.26;87.07
67364;HTU21D;54250;45.572;38.086;2023-04-01T03:38:48;-0.05;87.18
67364;HTU21D;54250;45.572;38.086;2023-04-01T03:41:20;0.66;86.49
67364;HTU21D;54250;45.572;38.086;2023-04-01T03:43:46;1.42;85.19
67364;HTU21D;54250;45.572;38.086;2023-04-01T03:46:17;2.06;84.07
67364;HTU21D;54250;45.572;38.086;2023-04-01T03:48:44;2.31;83.91
67364;HTU21D;54250;45.572;38.086;2023-04-01T03:51:10;2.73;83.65
67364;HTU21D;54250;45.572;38.086;2023-04-01T03:53:36;3.54;82.13
67364;HTU21D;54250;45.572;38.086;2023-04-01T03:56:05;3.90;81.17
67364;HTU21D;54250;45.572;38.086;2023-04-01T03:58:34;4.14;81.53
67364;HTU21D;54250;45.572;38.086;2023-04-01T04:01:01;4.89;80.24
67364;HTU21D;54250;45.572;38.086;2023-04-01T04:03:28;5.65;79.04
67364;HTU21D;54250;45.572;38.086;2023-04-01T04:05:54;6.59;77.62
67364;HTU21D;54250;45.572;38.086;2023-04-01T04:08:21;7.48;76.05
67364;HTU21D;54250;45.572;38.086;2023-04-01T04:10:54;8.27;75.09
67364;HTU21D;54250;45.572;38.086;2023-04-01T04:13:20;9.29;73.68
67364;HTU21D;54250;45.572;38.086;2023-04-01T04:15:53;10.08;72.54
67364;HTU21D;54250;45.572;38.086;2023-04-01T04:18:20;10.34;71.58
67364;HTU21D;54250;45.572;38.086;2023-04-01T04:20:46;10.29;72.35
67364;HTU21D;54250;45.572;38.086;2023-04-01T04:23:14;10.77;71.95
67364;HTU21D;54250;45.572;38.086;2023-04-01T04:25:40;11.09;71.08
67364;HTU21D;54250;45.572;38.086;2023-04-01T04:28:07;10.46;71.87
67364;HTU21D;54250;45.572;38.086;2023-04-01T04:30:35;9.16;75.02
67364;HTU21D;54250;45.572;38.086;2023-04-01T04:33:03;8.14;77.56
67364;HTU21D;54250;45.572;38.086;2023-04-01T04:35:29;7.70;78.57
67364;HTU21D;54250;45.572;38.086;2023-04-01T04:37:55;9.04;75.60
67364;HTU21D;54250;45.572;38.086;2023-04-01T04:40:23;10.84;71.24
67364;HTU21D;54250;45.572;38.086;2023-04-01T04:42:49;11.96;68.88
67364;HTU21D;54250;45.572;38.086;2023-04-01T04:45:17;12.85;66.84
67364;HTU21D;54250;45.572;38.086;2023-04-01T04:47:52;13.44;66.06
67364;HTU21D;54250;45.572;38.086;2023-04-01T04:50:18;14.24;65.15
67364;HTU21D;54250;45.572;38.086;2023-04-01T04:52:44;14.84;63.65
67364;HTU21D;54250;45.572;38.086;2023-04-01T04:55:11;15.02;63.47
67364;HTU21D;54250;45.572;38.086;2023-04-01T04:57:37;15.26;63.02
67364;HTU21D;54250;45.572;38.086;2023-04-01T05:00:04;15.55;61.45
67364;HTU21D;54250;45.572;38.086;2023-04-01T05:02:52;15.66;60.70
67364;HTU21D;54250;45.572;38.086;2023-04-01T05:05:19;15.77;60.23
67364;HTU21D;54250;45.572;38.086;2023-04-01T05:07:45;16.21;60.23
67364;HTU21D;54250;45.572;38.086;2023-04-01T05:10:11;16.52;58.45
67364;HTU21D;54250;45.572;38.086;2023-04-01T05:12:38;16.58;58.51
67364;HTU21D;54250;45.572;38.086;2023-04-01T05:15:07;16.46;58.40
67364;HTU21D;54250;45.572;38.086;2023-04-01T05:17:34;16.87;57.44
67364;HTU21D;54250;45.572;38.086;2023-04-01T05:20:02;16.92;55.99
67364;HTU21D;54250;45.572;38.086;2023-04-01T05:22:29;16.90;55.54
67364;HTU21D;54250;45.572;38.086;2023-04-01T05:24:55;17.25;54.27
67364;HTU21D;54250;45.572;38.086;2023-04-01T05:27:21;17.02;54.05
67364;HTU21D;54250;45.572;38.086;2023-04-01T05:29:48;17.21;54.30
67364;HTU21D;54250;45.572;38.086;2023-04-01T05:32:34;17.26;54.34
67364;HTU21D;54250;45.572;38.086;2023-04-01T05:35:00;18.22;53.57
67364;HTU21D;54250;45.572;38.086;2023-04-01T05:37:26;18.91;51.61
67364;HTU21D;54250;45.572;38.086;2023-04-01T05:39:51;19.05;49.76
67364;HTU21D;54250;45.572;38.086;2023-04-01T05:42:17;18.80;50.18
67364;HTU21D;54250;45.572;38.086;2023-04-01T05:44:43;19.50;49.51
67364;HTU21D;54250;45.572;38.086;2023-04-01T05:47:28;20.49;47.48
67364;HTU21D;54250;45.572;38.086;2023-04-01T05:49:54;19.91;47.28
67364;HTU21D;54250;45.572;38.086;2023-04-01T05:52:21;19.18;48.46
67364;HTU21D;54250;45.572;38.086;2023-04-01T05:54:47;18.27;50.15
67364;HTU21D;54250;45.572;38.086;2023-04-01T05:57:13;17.17;50.24
67364;HTU21D;54250;45.572;38.086;2023-04-01T05:59:39;16.55;50.39
67364;HTU21D;54250;45.572;38.086;2023-04-01T06:02:07;16.39;51.27
67364;HTU21D;54250;45.572;38.086;2023-04-01T06:04:38;16.96;50.63
67364;HTU21D;54250;45.572;38.086;2023-04-01T06:07:16;17.30;49.43
67364;HTU21D;54250;45.572;38.086;2023-04-01T06:09:43;16.94;49.87
67364;HTU21D;54250;45.572;38.086;2023-04-01T06:27:03;16.35;49.94
67364;HTU21D;54250;45.572;38.086;2023-04-01T06:55:41;21.04;43.00
67364;HTU21D;54250;45.572;38.086;2023-04-01T06:58:20;21.31;43.10
67364;HTU21D;54250;45.572;38.086;2023-04-01T07:00:48;21.22;42.22
67364;HTU21D;54250;45.572;38.086;2023-04-01T07:03:20;20.96;42.30
67364;HTU21D;54250;45.572;38.086;2023-04-01T07:05:47;20.94;42.80
67364;HTU21D;54250;45.572;38.086;2023-04-01T07:08:26;21.47;41.60
67364;HTU21D;54250;45.572;38.086;2023-04-01T07:10:54;21.43;41.26
67364;HTU21D;54250;45.572;38.086;2023-04-01T07:13:44;21.54;41.42
67364;HTU21D;54250;45.572;38.086;2023-04-01T07:24:44;22.70;40.17
67364;HTU21D;54250;45.572;38.086;2023-04-01T07:27:12;22.70;40.21
67364;HTU21D;54250;45.572;38.086;2023-04-01T07:29:40;22.43;39.72
67364;HTU21D;54250;45.572;38.086;2023-04-01T07:32:34;22.13;40.74
67364;HTU21D;54250;45.572;38.086;2023-04-01T07:35:22;22.49;40.09
67364;HTU21D;54250;45.572;38.086;2023-04-01T07:57:09;24.64;37.75
67364;HTU21D;54250;45.572;38.086;2023-04-01T08:03:05;25.30;37.59
67364;HTU21D;54250;45.572;38.086;2023-04-01T08:06:05;25.43;37.27
67364;HTU21D;54250;45.572;38.086;2023-04-01T08:09:03;26.20;36.72
67364;HTU21D;54250;45.572;38.086;2023-04-01T08:21:10;25.89;36.19
67364;HTU21D;54250;45.572;38.086;2023-04-01T08:23:40;25.47;36.01
67364;HTU21D;54250;45.572;38.086;2023-04-01T08:26:37;25.31;36.53
67364;HTU21D;54250;45.572;38.086;2023-04-01T08:29:21;24.65;35.40
67364;HTU21D;54250;45.572;38.086;2023-04-01T08:32:03;25.42;34.99
67364;HTU21D;54250;45.572;38.086;2023-04-01T08:34:40;25.04;35.51
67364;HTU21D;54250;45.572;38.086;2023-04-01T08:37:28;26.73;33.83
67364;HTU21D;54250;45.572;38.086;2023-04-01T08:40:09;26.97;32.44
67364;HTU21D;54250;45.572;38.086;2023-04-01T08:56:47;25.02;33.96
67364;HTU21D;54250;45.572;38.086;2023-04-01T08:59:50;24.91;34.08
67364;HTU21D;54250;45.572;38.086;2023-04-01T09:05:43;25.18;33.68
67364;HTU21D;54250;45.572;38.086;2023-04-01T09:08:20;24.78;34.12
67364;HTU21D;54250;45.572;38.086;2023-04-01T09:11:11;24.41;34.41
67364;HTU21D;54250;45.572;38.086;2023-04-01T09:14:42;24.32;34.65
67364;HTU21D;54250;45.572;38.086;2023-04-01T09:23:29;25.72;32.51
67364;HTU21D;54250;45.572;38.086;2023-04-01T09:32:01;25.72;32.80
67364;HTU21D;54250;45.572;38.086;2023-04-01T09:37:21;25.54;33.90
67364;HTU21D;54250;45.572;38.086;2023-04-01T09:45:46;25.75;32.60
67364;HTU21D;54250;45.572;38.086;2023-04-01T09:51:31;25.99;32.09
67364;HTU21D;54250;45.572;38.086;2023-04-01T09:54:20;24.95;33.94
67364;HTU21D;54250;45.572;38.086;2023-04-01T09:59:50;24.43;34.37
67364;HTU21D;54250;45.572;38.086;2023-04-01T10:11:20;23.13;35.38
67364;HTU21D;54250;45.572;38.086;2023-04-01T10:25:42;17.77;42.27
67364;HTU21D;54250;45.572;38.086;2023-04-01T10:34:39;16.48;43.97
67364;HTU21D;54250;45.572;38.086;2023-04-01T10:58:36;16.14;45.19
67364;HTU21D;54250;45.572;38.086;2023-04-01T11:16:29;15.88;46.13
67364;HTU21D;54250;45.572;38.086;2023-04-01T11:22:16;15.99;46.19
67364;HTU21D;54250;45.572;38.086;2023-04-01T11:39:15;16.24;46.25
67364;HTU21D;54250;45.572;38.086;2023-04-01T11:53:15;15.98;45.09
67364;HTU21D;54250;45.572;38.086;2023-04-01T12:01:43;15.92;44.82
67364;HTU21D;54250;45.572;38.086;2023-04-01T12:04:35;15.84;45.64
67364;HTU21D;54250;45.572;38.086;2023-04-01T12:10:15;16.14;45.20
67364;HTU21D;54250;45.572;38.086;2023-04-01T12:18:33;15.75;44.81
67364;HTU21D;54250;45.572;38.086;2023-04-01T12:24:25;15.60;44.45
67364;HTU21D;54250;45.572;38.086;2023-04-01T12:35:14;15.37;45.21
67364;HTU21D;54250;45.572;38.086;2023-04-01T12:41:22;15.52;44.50
67364;HTU21D;54250;45.572;38.086;2023-04-01T12:47:16;15.32;44.58
67364;HTU21D;54250;45.572;38.086;2023-04-01T12:58:15;15.04;45.07
67364;HTU21D;54250;45.572;38.086;2023-04-01T13:13:03;14.85;44.99
67364;HTU21D;54250;45.572;38.086;2023-04-01T13:20:48;14.88;44.93
67364;HTU21D;54250;45.572;38.086;2023-04-01T13:29:26;14.73;45.36
67364;HTU21D;54250;45.572;38.086;2023-04-01T13:34:59;14.53;45.23
67364;HTU21D;54250;45.572;38.086;2023-04-01T13:43:01;14.48;45.67
67364;HTU21D;54250;45.572;38.086;2023-04-01T14:04:45;14.26;46.07
67364;HTU21D;54250;45.572;38.086;2023-04-01T14:10:07;14.11;46.12
67364;HTU21D;54250;45.572;38.086;2023-04-01T14:16:11;14.03;46.30
67364;HTU21D;54250;45.572;38.086;2023-04-01T14:18:55;13.97;46.35
67364;HTU21D;54250;45.572;38.086;2023-04-01T14:21:46;13.92;46.45
67364;HTU21D;54250;45.572;38.086;2023-04-01T14:33:15;13.61;46.37
67364;HTU21D;54250;45.572;38.086;2023-04-01T14:41:42;13.36;46.83
67364;HTU21D;54250;45.572;38.086;2023-04-01T14:50:25;13.00;47.60
67364;HTU21D;54250;45.572;38.086;2023-04-01T14:55:57;12.92;47.66
67364;HTU21D;54250;45.572;38.086;2023-04-01T15:01:10;12.66;48.13
67364;HTU21D;54250;45.572;38.086;2023-04-01T15:06:34;12.45;48.45
67364;HTU21D;54250;45.572;38.086;2023-04-01T15:09:30;12.32;48.66
67364;HTU21D;54250;45.572;38.086;2023-04-01T15:14:37;12.03;49.55
67364;HTU21D;54250;45.572;38.086;2023-04-01T15:23:02;11.36;50.55
67364;HTU21D;54250;45.572;38.086;2023-04-01T15:34:07;10.58;51.43
67364;HTU21D;54250;45.572;38.086;2023-04-01T15:36:57;10.36;51.53
67364;HTU21D;54250;45.572;38.086;2023-04-01T15:44:58;9.80;52.14
67364;HTU21D;54250;45.572;38.086;2023-04-01T15:55:37;9.38;52.35
67364;HTU21D;54250;45.572;38.086;2023-04-01T16:01:34;9.16;52.54
67364;HTU21D;54250;45.572;38.086;2023-04-01T16:06:40;8.89;52.77
67364;HTU21D;54250;45.572;38.086;2023-04-01T16:09:26;8.74;52.92
67364;HTU21D;54250;45.572;38.086;2023-04-01T16:12:15;8.62;53.11
67364;HTU21D;54250;45.572;38.086;2023-04-01T16:20:24;8.18;53.57
67364;HTU21D;54250;45.572;38.086;2023-04-01T16:29:12;7.86;53.87
67364;HTU21D;54250;45.572;38.086;2023-04-01T16:35:25;7.77;53.91
67364;HTU21D;54250;45.572;38.086;2023-04-01T16:38:03;7.68;54.17
67364;HTU21D;54250;45.572;38.086;2023-04-01T16:40:40;7.59;54.38
67364;HTU21D;54250;45.572;38.086;2023-04-01T16:51:53;7.32;54.65
67364;HTU21D;54250;45.572;38.086;2023-04-01T17:02:25;7.11;54.87
67364;HTU21D;54250;45.572;38.086;2023-04-01T17:05:10;7.05;54.99
67364;HTU21D;54250;45.572;38.086;2023-04-01T17:13:06;6.21;56.55
67364;HTU21D;54250;45.572;38.086;2023-04-01T17:29:57;5.03;57.78
67364;HTU21D;54250;45.572;38.086;2023-04-01T17:35:25;4.81;57.80
67364;HTU21D;54250;45.572;38.086;2023-04-01T17:52:42;4.49;57.93
67364;HTU21D;54250;45.572;38.086;2023-04-01T17:58:19;4.31;58.47
67364;HTU21D;54250;45.572;38.086;2023-04-01T18:09:14;3.89;58.94
67364;HTU21D;54250;45.572;38.086;2023-04-01T18:14:37;3.72;59.27
67364;HTU21D;54250;45.572;38.086;2023-04-01T18:18:19;3.57;59.28
67364;HTU21D;54250;45.572;38.086;2023-04-01T18:20:34;3.47;59.67
67364;HTU21D;54250;45.572;38.086;2023-04-01T18:23:35;3.38;59.65
67364;HTU21D;54250;45.572;38.086;2023-04-01T18:26:18;3.38;59.76
67364;HTU21D;54250;45.572;38.086;2023-04-01T18:28:50;3.26;59.57
67364;HTU21D;54250;45.572;38.086;2023-04-01T18:31:20;3.38;59.70
67364;HTU21D;54250;45.572;38.086;2023-04-01T18:42:05;3.31;60.04
67364;HTU21D;54250;45.572;38.086;2023-04-01T18:50:11;3.40;59.86
67364;HTU21D;54250;45.572;38.086;2023-04-01T18:52:44;3.47;59.99
67364;HTU21D;54250;45.572;38.086;2023-04-01T18:55:29;3.48;60.02
67364;HTU21D;54250;45.572;38.086;2023-04-01T19:00:41;3.38;60.39
67364;HTU21D;54250;45.572;38.086;2023-04-01T19:03:24;3.32;60.56
67364;HTU21D;54250;45.572;38.086;2023-04-01T19:05:55;3.26;60.75
67364;HTU21D;54250;45.572;38.086;2023-04-01T19:08:35;3.19;60.78
67364;HTU21D;54250;45.572;38.086;2023-04-01T19:22:35;3.63;60.53
67364;HTU21D;54250;45.572;38.086;2023-04-01T19:25:26;3.77;60.83
67364;HTU21D;54250;45.572;38.086;2023-04-01T19:31:08;4.05;60.65
67364;HTU21D;54250;45.572;38.086;2023-04-01T19:33:43;4.22;60.97
67364;HTU21D;54250;45.572;38.086;2023-04-01T19:36:40;4.41;60.80
67364;HTU21D;54250;45.572;38.086;2023-04-01T19:44:52;4.86;60.89
67364;HTU21D;54250;45.572;38.086;2023-04-01T19:48:01;5.02;60.73
67364;HTU21D;54250;45.572;38.086;2023-04-01T19:50:51;5.09;60.76
67364;HTU21D;54250;45.572;38.086;2023-04-01T19:53:21;5.19;60.91
67364;HTU21D;54250;45.572;38.086;2023-04-01T20:01:59;5.45;61.11
67364;HTU21D;54250;45.572;38.086;2023-04-01T20:04:28;5.51;60.98
67364;HTU21D;54250;45.572;38.086;2023-04-01T20:07:09;5.55;61.26
67364;HTU21D;54250;45.572;38.086;2023-04-01T20:09:57;5.60;61.67
67364;HTU21D;54250;45.572;38.086;2023-04-01T20:12:47;5.59;61.57
67364;HTU21D;54250;45.572;38.086;2023-04-01T20:17:53;5.55;62.51
67364;HTU21D;54250;45.572;38.086;2023-04-01T20:20:24;5.54;62.23
67364;HTU21D;54250;45.572;38.086;2023-04-01T20:25:49;5.41;62.18
67364;HTU21D;54250;45.572;38.086;2023-04-01T20:33:28;5.18;62.80
67364;HTU21D;54250;45.572;38.086;2023-04-01T20:36:16;5.17;62.71
67364;HTU21D;54250;45.572;38.086;2023-04-01T20:44:08;5.31;62.91
67364;HTU21D;54250;45.572;38.086;2023-04-01T20:47:09;5.36;62.92
67364;HTU21D;54250;45.572;38.086;2023-04-01T20:50:06;5.37;62.81
67364;HTU21D;54250;45.572;38.086;2023-04-01T20:52:54;5.35;62.84
67364;HTU21D;54250;45.572;38.086;2023-04-01T21:04:14;5.55;62.67
67364;HTU21D;54250;45.572;38.086;2023-04-01T21:12:50;5.78;62.92
67364;HTU21D;54250;45.572;38.086;2023-04-01T21:26:40;5.95;62.96
67364;HTU21D;54250;45.572;38.086;2023-04-01T21:29:38;5.97;62.95
67364;HTU21D;54250;45.572;38.086;2023-04-01T21:32:39;5.94;62.86
67364;HTU21D;54250;45.572;38.086;2023-04-01T21:41:02;5.92;62.98
67364;HTU21D;54250;45.572;38.086;2023-04-01T21:49:16;5.79;63.76
67364;HTU21D;54250;45.572;38.086;2023-04-01T21:57:25;5.68;63.84
67364;HTU21D;54250;45.572;38.086;2023-04-01T22:11:34;5.63;63.85
67364;HTU21D;54250;45.572;38.086;2023-04-01T22:16:59;5.66;63.99
67364;HTU21D;54250;45.572;38.086;2023-04-01T22:19:32;5.70;64.17
67364;HTU21D;54250;45.572;38.086;2023-04-01T22:22:13;5.71;64.26
67364;HTU21D;54250;45.572;38.086;2023-04-01T22:32:43;5.78;64.03
67364;HTU21D;54250;45.572;38.086;2023-04-01T22:35:13;5.76;64.25
67364;HTU21D;54250;45.572;38.086;2023-04-01T22:40:33;5.71;64.28
67364;HTU21D;54250;45.572;38.086;2023-04-01T22:43:07;5.66;64.25
67364;HTU21D;54250;45.572;38.086;2023-04-01T22:56:37;5.27;65.50
67364;HTU21D;54250;45.572;38.086;2023-04-01T23:01:35;5.11;66.17
67364;HTU21D;54250;45.572;38.086;2023-04-01T23:04:04;5.04;66.01
67364;HTU21D;54250;45.572;38.086;2023-04-01T23:06:45;4.94;66.43
67364;HTU21D;54250;45.572;38.086;2023-04-01T23:09:22;4.84;66.25
67364;HTU21D;54250;45.572;38.086;2023-04-01T23:11:58;4.69;66.56
67364;HTU21D;54250;45.572;38.086;2023-04-01T23:17:38;4.44;66.59
67364;HTU21D;54250;45.572;38.086;2023-04-01T23:23:15;4.22;67.22
67364;HTU21D;54250;45.572;38.086;2023-04-01T23:25:57;4.17;67.39
67364;HTU21D;54250;45.572;38.086;2023-04-01T23:31:42;4.00;68.23
67364;HTU21D;54250;45.572;38.086;2023-04-01T23:36:39;4.01;69.21
67364;HTU21D;54250;45.572;38.086;2023-04-01T23:39:20;4.01;69.58
67364;HTU21D;54250;45.572;38.086;2023-04-01T23:41:47;3.95;69.31
67364;HTU21D;54250;45.572;38.086;2023-04-01T23:44:15;3.91;69.74
67364;HTU21D;54250;45.572;38.086;2023-04-01T23:46:43;3.93;69.29
67364;HTU21D;54250;45.572;38.086;2023-04-01T23:49:37;3.86;69.07
67364;HTU21D;54250;45.572;38.086;2023-04-01T23:52:12;3.89;69.59
67364;HTU21D;54250;45.572;38.086;2023-04-01T23:54:47;3.92;69.50
67364;HTU21D;54250;45.572;38.086;2023-04-01T23:57:18;3.92;69.71
